Time;durP1;ratioP1;P1;durP2;ratioP2;P2;SDS_P1;SDS_P2;PMS_P1;PMS_P2;Temp;Humidity;BMP_temperature;BMP_pressure;BME280_temperature;BME280_humidity;BME280_pressure;Samples;Min_cycle;Max_cycle;Signal;HPM_P1;HPM_P2
2021/08/08 00:00:41;;;;;;;4.93;2.55;;;;;;;22.35;50.11;100362.91;5011024;28;20079;-73
2021/08/08 00:03:06;;;;;;;6.10;2.25;;;;;;;22.43;50.13;100369.00;5012825;28;20038;-77
2021/08/08 00:05:32;;;;;;;6.72;2.42;;;;;;;22.36;49.94;100363.81;5012177;28;20038;-75
2021/08/08 00:07:57;;;;;;;4.57;2.25;;;;;;;22.37;49.68;100363.81;5005442;28;20092;-74
2021/08/08 00:10:23;;;;;;;7.70;2.55;;;;;;;22.65;49.47;100370.44;5009840;28;20029;-74
2021/08/08 00:12:48;;;;;;;8.13;3.00;;;;;;;22.81;49.02;100368.47;5012637;28;20037;-74
2021/08/08 00:15:14;;;;;;;5.78;2.45;;;;;;;22.93;48.51;100369.13;5012309;28;20136;-77
2021/08/08 00:17:40;;;;;;;6.22;2.20;;;;;;;23.10;48.00;100355.69;5012837;28;20049;-76
2021/08/08 00:20:07;;;;;;;3.83;2.40;;;;;;;23.08;47.64;100375.06;5011294;28;20434;-74
2021/08/08 00:22:33;;;;;;;4.93;2.40;;;;;;;23.16;47.24;100370.53;4978119;28;20390;-74
2021/08/08 00:25:00;;;;;;;6.93;2.30;;;;;;;23.29;47.58;100368.59;5012390;28;20172;-73
2021/08/08 00:27:25;;;;;;;4.60;2.53;;;;;;;23.01;47.82;100347.94;5012546;28;20029;-75
2021/08/08 00:29:51;;;;;;;4.30;2.10;;;;;;;23.07;48.25;100378.56;5012709;28;20037;-75
2021/08/08 00:32:16;;;;;;;8.40;2.45;;;;;;;23.01;48.06;100376.91;5012357;28;20036;-73
2021/08/08 00:34:42;;;;;;;4.25;2.10;;;;;;;23.05;47.75;100380.34;5012248;28;20029;-74
2021/08/08 00:37:07;;;;;;;4.75;2.30;;;;;;;23.19;47.87;100374.88;5012347;28;20025;-75
2021/08/08 00:39:33;;;;;;;5.97;2.67;;;;;;;23.13;47.61;100377.59;5011998;28;20053;-76
2021/08/08 00:41:58;;;;;;;4.28;2.33;;;;;;;23.15;48.06;100386.34;5012094;28;20073;-74
2021/08/08 00:44:24;;;;;;;6.00;2.50;;;;;;;23.17;47.59;100387.22;5012062;28;20456;-74
2021/08/08 00:46:49;;;;;;;6.90;2.40;;;;;;;23.04;48.06;100368.06;5012000;28;20499;-74
2021/08/08 00:49:15;;;;;;;4.38;2.38;;;;;;;23.21;47.27;100388.91;5012141;28;20403;-75
2021/08/08 00:51:41;;;;;;;4.95;2.13;;;;;;;23.34;47.41;100387.81;5012082;28;20407;-71
2021/08/08 00:54:07;;;;;;;4.47;1.98;;;;;;;23.37;47.14;100381.63;5009067;28;20460;-72
2021/08/08 00:56:35;;;;;;;3.05;2.17;;;;;;;23.43;46.86;100377.09;5005645;28;20121;-72
2021/08/08 00:59:00;;;;;;;4.78;2.28;;;;;;;23.50;46.61;100387.53;4992482;28;20042;-70
2021/08/08 01:01:28;;;;;;;3.78;2.40;;;;;;;23.13;46.98;100382.84;4985431;28;20471;-76
2021/08/08 01:03:54;;;;;;;5.32;2.15;;;;;;;22.48;48.66;100352.25;5000338;28;20033;-74
2021/08/08 01:06:51;;;;;;;5.20;2.20;;;;;;;22.57;49.49;100387.22;4992267;28;20190;-71
2021/08/08 01:09:18;;;;;;;4.72;2.17;;;;;;;22.51;49.79;100383.81;4992284;28;20076;-78
2021/08/08 01:11:46;;;;;;;3.53;2.25;;;;;;;22.58;50.24;100380.16;4991963;28;20034;-76
2021/08/08 01:14:13;;;;;;;5.70;2.60;;;;;;;22.58;50.41;100372.28;4992144;28;20085;-74
2021/08/08 01:16:41;;;;;;;6.18;2.53;;;;;;;22.35;50.23;100347.13;4992055;28;20481;-72
2021/08/08 01:19:09;;;;;;;4.75;2.10;;;;;;;22.41;50.62;100367.28;4992051;28;20084;-74
2021/08/08 01:21:36;;;;;;;5.57;2.42;;;;;;;22.53;50.58;100374.09;4991911;28;20088;-78
2021/08/08 01:24:03;;;;;;;4.03;2.40;;;;;;;22.62;50.21;100380.13;4991931;28;20034;-72
2021/08/08 01:26:30;;;;;;;9.73;2.50;;;;;;;22.65;48.83;100375.72;4991740;28;20022;-73
2021/08/08 01:28:57;;;;;;;4.53;2.53;;;;;;;22.58;48.78;100377.53;4992034;28;20042;-74
2021/08/08 01:31:23;;;;;;;4.53;2.38;;;;;;;22.71;48.81;100373.00;4991919;28;20077;-70
2021/08/08 01:33:49;;;;;;;3.50;2.10;;;;;;;22.87;47.93;100373.63;4992086;28;20080;-75
2021/08/08 01:36:15;;;;;;;4.85;2.67;;;;;;;22.87;47.65;100379.75;4991692;28;20022;-76
2021/08/08 01:38:53;;;;;;;9.90;2.58;;;;;;;22.65;48.29;100371.31;4991760;28;20032;-78
2021/08/08 01:41:21;;;;;;;5.72;2.53;;;;;;;22.59;48.57;100384.53;4991874;28;20034;-75
2021/08/08 01:43:49;;;;;;;5.68;2.58;;;;;;;22.56;48.65;100381.97;5004626;28;20037;-73
2021/08/08 01:46:17;;;;;;;7.97;2.50;;;;;;;22.34;48.85;100371.69;5011367;28;20033;-72
2021/08/08 01:48:45;;;;;;;9.20;2.55;;;;;;;22.13;50.01;100372.84;5011564;28;20030;-74
2021/08/08 01:51:12;;;;;;;5.77;2.57;;;;;;;22.05;50.49;100364.19;5011302;28;20049;-74
2021/08/08 01:53:39;;;;;;;4.43;2.42;;;;;;;22.14;50.42;100369.31;5011272;28;20037;-72
2021/08/08 01:56:05;;;;;;;7.57;2.20;;;;;;;22.10;50.52;100360.59;5011523;28;20507;-76
2021/08/08 01:58:30;;;;;;;3.63;2.20;;;;;;;22.05;50.33;100370.31;5015201;28;20018;-71
2021/08/08 02:00:56;;;;;;;7.68;2.35;;;;;;;21.86;49.81;100347.75;5015245;28;20033;-71
2021/08/08 02:03:32;;;;;;;8.75;2.47;;;;;;;22.04;50.50;100376.44;5015148;28;20411;-77
2021/08/08 02:05:58;;;;;;;4.05;2.55;;;;;;;22.06;49.90;100369.44;5015021;28;20037;-75
2021/08/08 02:08:23;;;;;;;6.18;2.78;;;;;;;22.01;50.43;100365.09;5015066;28;20400;-75
2021/08/08 02:10:48;;;;;;;3.03;2.40;;;;;;;21.16;51.14;100259.19;5015032;28;20029;-75
2021/08/08 02:13:14;;;;;;;8.90;2.65;;;;;;;21.75;50.97;100369.78;5014953;28;20040;-72
2021/08/08 02:15:40;;;;;;;5.32;2.78;;;;;;;21.71;51.42;100364.56;5014962;28;20046;-75
2021/08/08 02:18:05;;;;;;;7.40;2.42;;;;;;;21.46;51.67;100352.53;5014667;28;20052;-72
2021/08/08 02:20:31;;;;;;;3.42;2.60;;;;;;;21.68;51.60;100377.75;5029019;28;20049;-71
2021/08/08 02:22:56;;;;;;;5.88;2.50;;;;;;;21.34;52.57;100386.78;5014557;28;20026;-74
2021/08/08 02:25:22;;;;;;;3.65;2.38;;;;;;;20.56;55.16;100389.06;5014935;28;20022;-74
2021/08/08 02:27:47;;;;;;;3.97;2.72;;;;;;;20.29;55.36;100367.34;5014876;28;20531;-74
2021/08/08 02:30:12;;;;;;;3.55;2.80;;;;;;;20.41;55.76;100381.25;5014723;28;20065;-73
2021/08/08 02:32:38;;;;;;;5.80;2.60;;;;;;;20.52;55.65;100385.59;5014756;28;20491;-77
2021/08/08 02:35:04;;;;;;;5.50;2.72;;;;;;;20.42;53.71;100357.66;5014394;28;20037;-76
2021/08/08 02:37:29;;;;;;;9.23;2.90;;;;;;;20.58;53.40;100381.19;5014483;28;20026;-71
2021/08/08 02:39:55;;;;;;;6.10;2.60;;;;;;;20.68;53.16;100386.34;5013309;28;20544;-78
2021/08/08 02:42:20;;;;;;;4.28;2.53;;;;;;;20.84;52.87;100388.91;5014253;28;20033;-72
2021/08/08 02:44:46;;;;;;;10.35;2.75;;;;;;;20.91;53.07;100392.38;5014434;28;20030;-75
2021/08/08 02:47:11;;;;;;;5.35;2.63;;;;;;;20.96;52.80;100390.56;5014276;28;20527;-72
2021/08/08 02:49:37;;;;;;;8.23;3.00;;;;;;;20.91;52.83;100372.25;5014417;28;20026;-74
2021/08/08 02:52:06;;;;;;;8.73;2.80;;;;;;;21.07;52.71;100396.66;5014106;28;20472;-71
2021/08/08 02:54:32;;;;;;;5.38;2.58;;;;;;;20.79;54.17;100396.81;5014245;28;20416;-72
2021/08/08 02:56:57;;;;;;;7.20;2.72;;;;;;;20.63;54.43;100403.88;5014111;28;20030;-71
2021/08/08 02:59:23;;;;;;;6.47;2.55;;;;;;;20.30;55.64;100403.16;5014205;28;20033;-73
2021/08/08 03:01:48;;;;;;;4.78;3.15;;;;;;;19.86;56.28;100370.13;5011653;28;20026;-74
2021/08/08 03:04:14;;;;;;;6.65;3.17;;;;;;;19.47;56.31;100296.00;5013710;28;20061;-73
2021/08/08 03:06:46;;;;;;;11.25;3.53;;;;;;;20.10;56.55;100403.25;5013833;28;20030;-71
2021/08/08 03:09:12;;;;;;;11.55;3.33;;;;;;;19.93;57.11;100408.53;5013939;28;20455;-70
2021/08/08 03:11:45;;;;;;;5.72;2.80;;;;;;;19.77;57.43;100406.78;5012888;28;20022;-74
2021/08/08 03:14:14;;;;;;;9.38;3.13;;;;;;;19.50;58.00;100400.72;5013920;28;20046;-77
2021/08/08 03:16:41;;;;;;;11.10;4.07;;;;;;;19.52;58.28;100407.69;5013597;28;20030;-76
2021/08/08 03:19:07;;;;;;;8.73;3.05;;;;;;;19.64;57.83;100408.53;5013499;28;20542;-72
2021/08/08 03:21:32;;;;;;;8.32;2.83;;;;;;;19.68;57.34;100415.53;5013658;28;20117;-75
2021/08/08 03:23:58;;;;;;;7.75;3.00;;;;;;;19.63;57.11;100383.25;5013710;28;20499;-72
2021/08/08 03:26:23;;;;;;;6.95;2.85;;;;;;;19.86;57.23;100407.69;5013620;28;20021;-74
2021/08/08 03:28:49;;;;;;;8.13;3.25;;;;;;;19.87;56.46;100382.34;5013441;28;20030;-72
2021/08/08 03:31:17;;;;;;;10.57;3.17;;;;;;;19.84;55.97;100353.56;5011618;28;20030;-76
2021/08/08 03:33:43;;;;;;;5.68;3.55;;;;;;;20.05;55.87;100386.69;5013208;28;20499;-71
2021/08/08 03:36:11;;;;;;;15.85;3.20;;;;;;;20.14;56.03;100425.09;5013167;28;20030;-74
2021/08/08 03:38:36;;;;;;;11.48;3.40;;;;;;;20.19;55.83;100420.69;5011228;28;20113;-71
2021/08/08 03:41:01;;;;;;;7.03;3.40;;;;;;;20.15;56.04;100429.41;5005397;28;20109;-76
2021/08/08 03:43:27;;;;;;;8.55;2.92;;;;;;;19.93;56.82;100424.25;4992445;28;20031;-75
2021/08/08 03:45:52;;;;;;;10.23;3.22;;;;;;;19.77;56.98;100433.00;4993550;28;20030;-76
2021/08/08 03:48:18;;;;;;;8.13;3.30;;;;;;;19.78;57.20;100432.97;4993686;28;20069;-71
2021/08/08 03:50:43;;;;;;;12.02;3.40;;;;;;;19.71;57.33;100431.25;4993667;28;20026;-70
2021/08/08 03:53:09;;;;;;;9.00;3.40;;;;;;;19.60;58.02;100436.50;4998093;28;20082;-72
2021/08/08 03:55:34;;;;;;;9.48;3.13;;;;;;;19.45;58.22;100440.00;5012524;28;20591;-70
2021/08/08 03:58:00;;;;;;;7.88;3.25;;;;;;;19.45;58.78;100442.63;5011225;28;20041;-70
2021/08/08 04:00:25;;;;;;;8.35;3.05;;;;;;;19.49;58.07;100435.63;5012455;28;20029;-70
2021/08/08 04:02:51;;;;;;;7.82;3.15;;;;;;;19.44;58.24;100443.50;5012549;28;20021;-70
2021/08/08 04:05:16;;;;;;;9.85;3.38;;;;;;;19.49;58.83;100459.19;5011528;28;20029;-74
2021/08/08 04:07:42;;;;;;;11.27;3.50;;;;;;;19.51;59.39;100453.06;5012427;28;20454;-71
2021/08/08 04:10:08;;;;;;;9.18;3.30;;;;;;;19.42;59.07;100462.69;5012932;28;20032;-69
2021/08/08 04:12:33;;;;;;;10.27;3.88;;;;;;;19.21;60.02;100448.72;5012403;28;20026;-73
2021/08/08 04:15:01;;;;;;;10.80;3.80;;;;;;;19.22;60.10;100463.53;5011417;28;20180;-71
2021/08/08 04:17:27;;;;;;;9.73;3.25;;;;;;;19.22;60.30;100469.63;5011508;28;20532;-71
2021/08/08 04:19:52;;;;;;;11.38;3.28;;;;;;;19.38;59.88;100470.53;5011285;28;20137;-68
2021/08/08 04:22:18;;;;;;;15.35;3.92;;;;;;;19.28;60.16;100475.75;5011838;28;20041;-71
2021/08/08 04:24:45;;;;;;;7.45;3.08;;;;;;;19.36;59.58;100479.25;5012041;28;20022;-72
2021/08/08 04:27:11;;;;;;;12.18;3.35;;;;;;;19.37;59.68;100474.00;5012056;28;20026;-75
2021/08/08 04:29:36;;;;;;;7.10;3.03;;;;;;;19.49;59.09;100490.59;5010337;28;20025;-71
2021/08/08 04:32:02;;;;;;;15.52;3.53;;;;;;;19.51;59.52;100481.00;5009424;28;20087;-70
2021/08/08 04:34:30;;;;;;;12.02;3.78;;;;;;;19.58;60.32;100488.00;5011049;28;20026;-71
2021/08/08 04:36:55;;;;;;;8.18;3.85;;;;;;;19.42;60.65;100478.41;5010890;28;20069;-70
2021/08/08 04:39:21;;;;;;;6.65;3.42;;;;;;;19.67;60.57;100479.28;5011363;28;20060;-69
2021/08/08 04:41:46;;;;;;;11.13;3.60;;;;;;;19.72;60.22;100480.13;5007321;28;20443;-69
2021/08/08 04:44:12;;;;;;;10.45;3.80;;;;;;;19.91;61.03;100486.25;5007539;28;20018;-69
2021/08/08 04:46:37;;;;;;;11.35;3.90;;;;;;;19.94;60.25;100486.28;5009594;28;20026;-68
2021/08/08 04:49:02;;;;;;;9.20;4.03;;;;;;;20.05;61.29;100483.63;5010666;28;20503;-70
2021/08/08 04:51:28;;;;;;;13.80;3.63;;;;;;;20.20;60.04;100485.34;5003913;28;20062;-69
2021/08/08 04:53:53;;;;;;;8.27;3.45;;;;;;;20.39;59.64;100483.53;5015952;28;20033;-71
2021/08/08 04:56:19;;;;;;;10.77;3.92;;;;;;;20.43;59.83;100498.38;5011882;28;20022;-72
2021/08/08 04:58:44;;;;;;;16.08;3.60;;;;;;;20.29;60.62;100477.44;5010699;28;20488;-73
2021/08/08 05:01:10;;;;;;;14.52;3.63;;;;;;;20.46;59.68;100492.25;5010275;28;20439;-72
2021/08/08 05:03:35;;;;;;;14.10;3.90;;;;;;;20.68;59.28;100500.91;5009446;28;20030;-70
2021/08/08 05:06:00;;;;;;;11.95;3.65;;;;;;;20.84;59.66;100499.13;5010769;28;20392;-69
2021/08/08 05:08:26;;;;;;;12.43;4.20;;;;;;;20.97;59.00;100511.31;5008330;28;20381;-71
2021/08/08 05:10:51;;;;;;;37.67;16.77;;;;;;;20.85;57.95;100475.50;5010494;28;20029;-72
2021/08/08 05:13:17;;;;;;;20.67;6.85;;;;;;;20.85;58.17;100493.00;5009050;28;20045;-72
2021/08/08 05:15:42;;;;;;;26.52;12.43;;;;;;;20.69;59.76;100502.66;5010076;28;20076;-68
2021/08/08 05:18:08;;;;;;;13.48;5.85;;;;;;;20.71;59.78;100516.69;5010946;28;20025;-71
2021/08/08 05:20:33;;;;;;;12.82;4.07;;;;;;;20.89;59.85;100499.97;5010624;28;20030;-71
2021/08/08 05:22:59;;;;;;;7.65;3.70;;;;;;;20.95;60.15;100504.31;5010895;28;20068;-71
2021/08/08 05:25:24;;;;;;;10.90;3.78;;;;;;;21.05;61.19;100513.00;5011358;28;20022;-73
2021/08/08 05:27:50;;;;;;;10.68;3.25;;;;;;;21.25;60.74;100503.25;5010649;28;20077;-71
2021/08/08 05:30:15;;;;;;;14.73;3.70;;;;;;;21.42;60.04;100508.41;5010935;28;20022;-72
2021/08/08 05:32:41;;;;;;;9.15;3.47;;;;;;;21.61;59.34;100511.78;5010615;28;20075;-71
2021/08/08 05:35:07;;;;;;;12.65;2.78;;;;;;;21.69;58.93;100497.72;5011462;28;20030;-72
2021/08/08 05:37:33;;;;;;;9.52;3.13;;;;;;;21.77;59.12;100495.88;5010818;28;20604;-72
2021/08/08 05:40:04;;;;;;;10.20;3.03;;;;;;;22.00;57.75;100502.69;5010792;28;20022;-71
2021/08/08 05:42:29;;;;;;;8.85;2.80;;;;;;;22.05;56.40;100504.38;5011004;28;20030;-71
2021/08/08 05:44:55;;;;;;;8.82;3.00;;;;;;;22.14;56.07;100509.56;5010247;28;20026;-69
2021/08/08 05:47:20;;;;;;;8.73;2.78;;;;;;;22.21;55.60;100491.94;4992485;28;20096;-72
2021/08/08 05:49:46;;;;;;;5.90;2.70;;;;;;;22.42;55.58;100496.13;5010878;28;20038;-74
2021/08/08 05:52:12;;;;;;;6.40;3.05;;;;;;;22.63;55.42;100504.69;5009723;28;20037;-73
2021/08/08 05:54:38;;;;;;;7.50;2.60;;;;;;;22.52;55.55;100504.78;5008467;28;20029;-72
2021/08/08 05:57:03;;;;;;;7.10;2.95;;;;;;;22.62;55.70;100502.94;5010933;28;20022;-75
2021/08/08 05:59:29;;;;;;;10.45;3.47;;;;;;;22.85;55.02;100507.88;5010655;28;20065;-74
2021/08/08 06:01:54;;;;;;;8.07;2.78;;;;;;;22.74;54.17;100496.63;5010151;28;20026;-72
2021/08/08 06:04:20;;;;;;;8.80;2.75;;;;;;;22.87;55.76;100502.63;5010356;28;20404;-69
2021/08/08 06:06:46;;;;;;;6.55;2.70;;;;;;;22.85;54.41;100496.50;5010100;28;20980;-73
2021/08/08 06:09:11;;;;;;;9.27;2.58;;;;;;;23.00;53.51;100484.88;5010417;28;20552;-72
2021/08/08 06:11:37;;;;;;;6.50;2.50;;;;;;;23.05;53.08;100491.84;5010354;28;20455;-72
2021/08/08 06:14:04;;;;;;;8.10;2.83;;;;;;;23.33;53.55;100493.19;5009815;28;20042;-72
2021/08/08 06:16:29;;;;;;;10.52;2.53;;;;;;;23.51;52.71;100497.31;5009924;28;20029;-76
2021/08/08 06:18:55;;;;;;;6.82;2.38;;;;;;;23.69;51.71;100494.38;5010685;28;20077;-69
2021/08/08 06:21:20;;;;;;;7.32;2.25;;;;;;;23.26;52.46;100466.09;5010505;28;20097;-76
2021/08/08 06:23:47;;;;;;;7.10;2.50;;;;;;;23.43;52.52;100495.66;5010594;28;20480;-70
2021/08/08 06:26:13;;;;;;;6.13;2.63;;;;;;;23.53;52.48;100488.47;4995856;28;20026;-68
2021/08/08 06:28:38;;;;;;;3.85;2.25;;;;;;;23.77;51.47;100491.59;4990788;28;20037;-72
2021/08/08 06:31:04;;;;;;;7.75;2.38;;;;;;;23.96;50.26;100476.34;4996980;28;20021;-71
2021/08/08 06:33:30;;;;;;;8.18;2.40;;;;;;;24.34;50.75;100497.63;5001604;28;20026;-69
2021/08/08 06:35:56;;;;;;;6.07;2.53;;;;;;;24.33;50.02;100495.88;4990970;28;20432;-70
2021/08/08 06:38:21;;;;;;;8.85;2.70;;;;;;;24.46;49.62;100496.50;4991481;28;20027;-67
2021/08/08 06:40:47;;;;;;;13.48;2.33;;;;;;;24.73;48.11;100494.22;4991838;28;20109;-70
2021/08/08 06:43:12;;;;;;;6.90;2.40;;;;;;;24.90;47.43;100499.13;4993584;28;20062;-67
2021/08/08 06:45:38;;;;;;;5.13;2.40;;;;;;;24.81;47.97;100498.44;4995513;28;20026;-74
2021/08/08 06:48:04;;;;;;;7.38;2.20;;;;;;;25.01;46.08;100497.13;4995618;28;20030;-67
2021/08/08 06:50:30;;;;;;;7.50;3.08;;;;;;;25.00;45.59;100503.31;4995296;28;20061;-71
2021/08/08 06:52:57;;;;;;;4.90;2.35;;;;;;;24.82;46.97;100494.03;4995250;28;20404;-73
2021/08/08 06:55:22;;;;;;;8.38;2.42;;;;;;;25.11;45.53;100489.84;4995212;28;20484;-71
2021/08/08 06:57:48;;;;;;;9.63;2.97;;;;;;;25.37;44.76;100496.34;4995048;28;20118;-68
2021/08/08 07:00:14;;;;;;;7.80;2.17;;;;;;;25.56;43.60;100489.69;4995289;28;20474;-70
2021/08/08 07:02:40;;;;;;;7.28;2.05;;;;;;;25.73;44.12;100494.53;4994034;28;20038;-72
2021/08/08 07:05:07;;;;;;;5.32;2.47;;;;;;;25.73;47.03;100493.69;4995216;28;20022;-70
2021/08/08 07:07:33;;;;;;;6.05;2.22;;;;;;;25.54;45.27;100496.78;4994873;28;20084;-68
2021/08/08 07:09:59;;;;;;;5.53;2.08;;;;;;;25.70;44.62;100493.78;4994937;28;20101;-74
2021/08/08 07:12:24;;;;;;;4.00;2.00;;;;;;;25.91;44.27;100487.06;4994650;28;20026;-72
2021/08/08 07:14:50;;;;;;;4.90;2.17;;;;;;;26.18;43.61;100488.09;4995001;28;20098;-68
2021/08/08 07:17:16;;;;;;;5.47;1.95;;;;;;;26.42;42.36;100493.63;4994823;28;20025;-73
2021/08/08 07:19:41;;;;;;;8.15;2.40;;;;;;;26.26;45.74;100499.34;4992505;28;20050;-69
2021/08/08 07:22:10;;;;;;;3.85;1.80;;;;;;;26.24;42.61;100484.44;4994892;28;20022;-67
2021/08/08 07:24:35;;;;;;;6.55;3.40;;;;;;;26.52;43.68;100488.91;4994835;28;20458;-67
2021/08/08 07:27:01;;;;;;;6.13;1.80;;;;;;;26.70;42.31;100495.47;4994334;28;20030;-67
2021/08/08 07:29:27;;;;;;;5.85;2.17;;;;;;;26.80;41.38;100489.91;4994658;28;20042;-67
2021/08/08 07:31:53;;;;;;;6.50;2.05;;;;;;;26.91;40.85;100497.50;4994708;28;20030;-68
2021/08/08 07:34:19;;;;;;;3.17;1.90;;;;;;;26.93;41.42;100494.78;4994555;28;20132;-73
2021/08/08 07:36:44;;;;;;;5.60;1.70;;;;;;;27.02;39.63;100483.91;4994647;28;20057;-72
2021/08/08 07:39:11;;;;;;;8.55;1.77;;;;;;;27.17;37.18;100460.50;4994145;28;20046;-74
2021/08/08 07:41:37;;;;;;;6.53;2.15;;;;;;;27.27;39.11;100484.00;4994248;28;20026;-71
2021/08/08 07:44:02;;;;;;;7.43;2.05;;;;;;;27.43;38.99;100478.25;4994435;28;20026;-75
2021/08/08 07:46:28;;;;;;;6.13;2.50;;;;;;;27.53;38.90;100474.34;4994359;28;20034;-68
2021/08/08 07:48:53;;;;;;;3.58;1.80;;;;;;;27.28;38.28;100468.97;4994035;28;20022;-67
2021/08/08 07:51:19;;;;;;;4.32;1.90;;;;;;;27.58;38.98;100493.63;4994387;28;20408;-68
2021/08/08 07:53:44;;;;;;;5.05;2.05;;;;;;;27.80;38.79;100494.69;4993440;28;20058;-68
2021/08/08 07:56:10;;;;;;;5.20;2.00;;;;;;;27.98;38.94;100493.19;4993754;28;20041;-68
2021/08/08 07:58:35;;;;;;;5.63;2.00;;;;;;;28.08;41.28;100490.16;4993857;28;20034;-69
2021/08/08 08:01:01;;;;;;;3.03;1.90;;;;;;;28.17;40.21;100491.63;4994114;28;20074;-74
2021/08/08 08:03:28;;;;;;;5.10;1.88;;;;;;;28.04;39.47;100466.47;4993953;28;20033;-72
2021/08/08 08:05:57;;;;;;;4.28;1.83;;;;;;;28.28;38.73;100496.56;4992594;28;20058;-68
2021/08/08 08:08:23;;;;;;;4.55;1.98;;;;;;;28.43;39.15;100492.47;4993753;28;20101;-73
2021/08/08 08:10:49;;;;;;;5.43;1.75;;;;;;;28.46;37.67;100476.41;4993726;28;20084;-68
2021/08/08 08:13:15;;;;;;;5.38;2.03;;;;;;;28.77;37.12;100504.50;4993874;28;20026;-68
2021/08/08 08:15:40;;;;;;;5.20;1.95;;;;;;;28.86;40.00;100504.16;4993739;28;20414;-72
2021/08/08 08:18:06;;;;;;;6.57;2.10;;;;;;;28.89;38.13;100505.81;4993633;28;20081;-68
2021/08/08 08:20:31;;;;;;;4.90;1.58;;;;;;;28.89;37.58;100511.13;4993446;28;20137;-72
2021/08/08 08:22:57;;;;;;;5.28;2.00;;;;;;;29.05;36.79;100512.25;4993470;28;20049;-68
2021/08/08 08:25:22;;;;;;;4.68;1.98;;;;;;;28.83;39.86;100469.72;4993525;28;20026;-67
2021/08/08 08:27:49;;;;;;;3.95;1.70;;;;;;;29.08;35.97;100505.94;4993501;28;20060;-68
2021/08/08 08:30:14;;;;;;;4.25;2.05;;;;;;;29.19;34.70;100500.22;4993674;28;20034;-72
2021/08/08 08:32:40;;;;;;;5.90;1.60;;;;;;;29.25;35.26;100492.00;4993517;28;20037;-68
2021/08/08 08:35:06;;;;;;;3.35;1.70;;;;;;;29.42;34.21;100504.59;4993461;28;20027;-68
2021/08/08 08:37:33;;;;;;;7.25;2.00;;;;;;;29.56;33.62;100493.41;4993305;28;20045;-69
2021/08/08 08:39:59;;;;;;;5.15;1.88;;;;;;;29.35;38.19;100469.44;4991829;28;20030;-68
2021/08/08 08:42:29;;;;;;;3.35;1.80;;;;;;;29.54;34.44;100488.13;4993238;28;20022;-68
2021/08/08 08:44:56;;;;;;;4.82;1.60;;;;;;;29.73;33.67;100481.19;4993232;28;20027;-68
2021/08/08 08:47:23;;;;;;;4.75;1.80;;;;;;;29.76;35.98;100481.91;4993209;28;20037;-68
2021/08/08 08:49:58;;;;;;;3.88;1.40;;;;;;;29.58;34.15;100450.78;4993226;28;20456;-74
2021/08/08 08:52:26;;;;;;;3.65;1.70;;;;;;;29.85;31.74;100480.66;4993044;28;20113;-73
2021/08/08 08:54:53;;;;;;;2.60;1.40;;;;;;;29.82;31.04;100462.16;4993178;28;20022;-75
2021/08/08 08:57:18;;;;;;;2.22;1.60;;;;;;;29.94;34.26;100468.78;4992992;28;20260;-68
2021/08/08 08:59:47;;;;;;;3.55;1.70;;;;;;;30.03;31.22;100449.72;4992785;28;20475;-68
2021/08/08 09:02:15;;;;;;;2.78;1.90;;;;;;;30.27;30.70;100470.84;4992874;28;20053;-71
2021/08/08 09:04:41;;;;;;;3.20;1.58;;;;;;;30.34;31.78;100473.19;4992729;28;20066;-68
2021/08/08 09:07:07;;;;;;;3.33;1.50;;;;;;;30.22;33.24;100447.09;4992347;28;20064;-68
2021/08/08 09:09:34;;;;;;;3.08;1.70;;;;;;;30.44;33.06;100472.75;4993121;28;20033;-69
2021/08/08 09:12:00;;;;;;;3.10;1.48;;;;;;;30.59;32.10;100474.72;4992605;28;20105;-69
2021/08/08 09:14:26;;;;;;;2.38;1.77;;;;;;;30.72;30.35;100477.69;4992958;28;20117;-73
2021/08/08 09:16:55;;;;;;;4.47;1.70;;;;;;;30.71;28.52;100465.28;4992627;28;20058;-68
2021/08/08 09:19:23;;;;;;;2.17;1.40;;;;;;;30.64;30.34;100447.88;4992347;28;20110;-68
2021/08/08 09:21:49;;;;;;;5.53;1.90;;;;;;;31.01;29.14;100470.09;4992875;28;20042;-68
2021/08/08 09:24:41;;;;;;;4.50;1.67;;;;;;;31.13;30.82;100453.53;4992651;28;20069;-69
2021/08/08 09:27:12;;;;;;;1.70;1.50;;;;;;;31.15;29.18;100461.44;4913485;29;20051;-68
2021/08/08 09:29:41;;;;;;;5.25;1.40;;;;;;;31.23;28.97;100456.59;4913384;29;20044;-71
2021/08/08 09:32:08;;;;;;;2.58;1.58;;;;;;;31.27;27.79;100447.50;4913125;29;20603;-68
2021/08/08 09:34:36;;;;;;;2.10;1.60;;;;;;;31.41;27.72;100454.78;4913620;29;20087;-68
2021/08/08 09:37:03;;;;;;;3.73;1.70;;;;;;;31.46;27.10;100450.09;4913615;29;20044;-69
2021/08/08 09:39:34;;;;;;;3.38;1.48;;;;;;;31.53;27.38;100447.09;4913364;29;20080;-69
2021/08/08 09:42:15;;;;;;;2.35;1.48;;;;;;;31.74;27.51;100448.72;4913365;29;20038;-68
2021/08/08 09:44:55;;;;;;;3.17;1.55;;;;;;;31.87;27.76;100450.75;4913219;29;20055;-68
2021/08/08 09:47:22;;;;;;;4.05;1.70;;;;;;;32.03;26.58;100448.13;4913366;29;20043;-68
2021/08/08 09:50:04;;;;;;;4.18;1.88;;;;;;;32.20;25.65;100437.44;4913261;29;20064;-69
2021/08/08 09:52:31;;;;;;;2.80;1.55;;;;;;;32.30;24.97;100426.22;4913477;29;20040;-70
2021/08/08 09:54:57;;;;;;;2.10;1.30;;;;;;;32.25;27.41;100410.44;4913335;29;20040;-73
2021/08/08 09:57:22;;;;;;;2.55;1.58;;;;;;;32.32;24.32;100433.22;4913338;29;20044;-68
2021/08/08 09:59:49;;;;;;;2.55;1.35;;;;;;;32.35;24.35;100430.38;4913339;29;20064;-69
2021/08/08 10:02:21;;;;;;;2.42;1.48;;;;;;;32.53;25.95;100436.50;4913163;29;20032;-68
2021/08/08 10:04:48;;;;;;;4.90;1.75;;;;;;;32.67;24.42;100438.38;4938479;28;20100;-68
2021/08/08 10:07:16;;;;;;;2.13;1.48;;;;;;;32.79;24.16;100427.97;4991950;28;20061;-69
2021/08/08 10:09:43;;;;;;;2.10;1.53;;;;;;;32.74;23.70;100420.22;4991938;28;20026;-69
2021/08/08 10:12:39;;;;;;;2.80;1.60;;;;;;;32.85;23.47;100424.97;4992231;28;20030;-69
2021/08/08 10:15:05;;;;;;;1.60;1.30;;;;;;;32.95;27.01;100410.13;4962864;28;20046;-70
2021/08/08 10:17:34;;;;;;;2.88;1.60;;;;;;;32.96;26.96;100409.19;4992955;28;20034;-76
2021/08/08 10:20:01;;;;;;;1.67;1.30;;;;;;;32.76;25.25;100367.53;4995644;28;20404;-69
2021/08/08 10:22:28;;;;;;;5.85;1.60;;;;;;;33.27;26.53;100420.72;4996130;28;20050;-72
2021/08/08 10:24:56;;;;;;;3.38;1.70;;;;;;;33.28;25.72;100408.22;4995753;28;20034;-69
2021/08/08 10:27:23;;;;;;;4.18;1.60;;;;;;;33.41;24.61;100409.25;4995945;28;20037;-69
2021/08/08 10:29:50;;;;;;;4.70;1.70;;;;;;;33.52;27.33;100408.59;4995687;28;20133;-68
2021/08/08 10:32:16;;;;;;;3.28;1.65;;;;;;;33.62;23.36;100408.91;4995475;28;20186;-68
2021/08/08 10:35:12;;;;;;;1.50;1.38;;;;;;;33.69;24.54;100403.06;4995326;28;20538;-68
2021/08/08 10:37:39;;;;;;;2.38;1.70;;;;;;;33.74;24.80;100404.63;4954458;29;20465;-68
2021/08/08 10:40:05;;;;;;;1.90;1.50;;;;;;;33.89;26.30;100400.16;4954323;29;20133;-68
2021/08/08 10:42:44;;;;;;;2.67;1.63;;;;;;;33.95;24.27;100403.31;4954705;29;20407;-70
2021/08/08 10:45:24;;;;;;;2.72;1.40;;;;;;;34.10;22.26;100395.28;4954446;29;20046;-69
2021/08/08 10:48:14;;;;;;;2.63;1.55;;;;;;;34.16;22.10;100377.00;4954630;29;20074;-73
2021/08/08 10:50:49;;;;;;;2.40;1.30;;;;;;;34.44;22.72;100403.88;4954398;29;20039;-69
2021/08/08 10:53:28;;;;;;;1.88;1.27;;;;;;;34.60;21.64;100404.59;4954517;29;20039;-68
2021/08/08 10:56:07;;;;;;;2.23;1.40;;;;;;;34.58;21.59;100378.84;4954585;29;20131;-69
2021/08/08 10:58:38;;;;;;;1.92;1.48;;;;;;;34.79;21.35;100395.34;4954025;29;20258;-69
2021/08/08 11:01:22;;;;;;;1.75;1.42;;;;;;;34.90;20.78;100394.66;4954236;29;20498;-69
2021/08/08 11:03:59;;;;;;;3.42;1.60;;;;;;;34.92;21.32;100374.81;4954026;29;20647;-69
2021/08/08 11:06:26;;;;;;;1.40;1.30;;;;;;;35.11;21.82;100397.72;4953895;29;20038;-69
2021/08/08 11:08:59;;;;;;;1.88;1.30;;;;;;;35.20;20.46;100396.25;4948355;28;20049;-69
2021/08/08 11:11:27;;;;;;;2.55;1.40;;;;;;;35.19;21.47;100370.38;4995121;28;20027;-69
2021/08/08 11:13:54;;;;;;;4.00;1.58;;;;;;;35.30;23.64;100390.16;4994920;28;20485;-69
2021/08/08 11:16:19;;;;;;;1.50;1.40;;;;;;;35.34;21.20;100389.91;4994878;28;20034;-69
2021/08/08 11:18:56;;;;;;;2.08;1.50;;;;;;;35.29;22.18;100391.09;4992825;28;20038;-68
2021/08/08 11:21:22;;;;;;;4.25;1.65;;;;;;;35.22;20.87;100380.88;4994797;28;20084;-68
2021/08/08 11:24:02;;;;;;;2.63;1.80;;;;;;;35.36;21.30;100390.69;4993825;28;20412;-69